Aérodrome :
LOGIN :

S'inscrire | Disclaimer

   EN    FR    IT 

 










Légende :    VFR   VFR Marginal   IFR   IFR Intensif   IFR Très Intensif
Visi : 
Plafond : 
>= 8 km
>= 3000ft
5 à 8 km
1000 à 3000 ft
1500m à 5 km
500 à 1000 ft
800 à 1500m
200 à 500 ft
< 800m
< 200 ft
Symboles :   Orages  Brouillard  Fortes neiges  Fortes précipitations  Vent > 20 kt
SIGMETs :   Divers  Orages  Givrage  Turbulence  Onde Orograph.  Cendres Volcan.







- Altitude de l'aérodrome : 468 ft
- Code IATA : GRO


LEGE - Girona Costa Brava

DERNIER METAR :
  • 250400Z 00000KT 9999 FEW040 11/11 Q1016

METARs EXPIRÉS :
  • 250330Z 21003KT 170V250 9000 FEW040 11/11 Q1017
  • 250300Z 04002KT 9999 FEW040 12/12 Q1016
  • 250230Z VRB01KT 9999 FEW040 12/12 Q1017
  • 250200Z 00000KT 9999 FEW040 11/11 Q1017

TAF TAF LEGE
Valide du 25 à 00h jusqu'au 26 à 00h UTC


242300Z 2500/2524 VRB03KT 9999 FEW050 TX28/2514Z TN13/2506Z
PROB30
TEMPO 2500/2503 4000 BR
BECMG 2509/2511 07006KT
BECMG 2513/2515 13010KT
BECMG 2518/2520 VRB03KT
Pas de NOTAMs connus pour ce terrain.



MET'MAP, la Météo Aéronautique d'un coup d'oeil ! - Copyright ORBIFLY Décembre 2007 - Disclaimer

ORBIFLY MET'MAP TEAM :

Programmation & Développement : Alexandra Zaïnal
Conception & Développement : Baudouin d'Aumeries
Co-Programmation & Développement : Marc-Olivier Méhu
Soutien technique & logistique : Manuel Goepfert

Contact : metmap@orbifly.com




SOURCES & CREDITS :

   NOAA